Terminal Aerodrome Forecast
Issued by NWS

Home | Current Version | Previous Version | Text Only | Print | Product List | Glossary On
Versions: 1 2 3 4 5 6 7 8 9 10 11 12 13 14 15 16 17 18 19 20 21 22 23 24 25 26 27 28 29 30 31 32 33 34
000
FTUS43 KGRB 190500
TAFRHI
TAF
KRHI 190528Z 1906/2006 16005KT 5SM BR SCT050 SCT200 WS015/22030KT
      TEMPO 1908/1912 2SM BR
     FM191400 19010G16KT P6SM SCT100 BKN250 WS015/22035KT
     FM191600 18014G22KT P6SM SCT100 BKN200
     FM192200 19011KT P6SM BKN080 BKN150
     FM200200 18006KT P6SM VCTS BKN050CB
      TEMPO 2002/2006 4SM -SHRA BKN040=

USA.gov is the U.S. government's official web portal to all federal, state and local government web resources and services.